createdAt,value
2023-03-01T00:00:34.663Z,0.08
2023-03-01T00:02:14.267Z,0.08
2023-03-01T00:03:54.006Z,0.08
2023-03-01T00:05:33.910Z,0.08
2023-03-01T00:07:13.532Z,0.08
2023-03-01T00:08:53.334Z,0.08
2023-03-01T00:10:33.059Z,0.08
2023-03-01T00:12:12.832Z,0.09
2023-03-01T00:13:52.704Z,0.09
2023-03-01T00:15:32.397Z,0.08
2023-03-01T00:17:12.230Z,0.08
2023-03-01T00:18:51.884Z,0.08
2023-03-01T00:20:31.756Z,0.07
2023-03-01T00:22:11.424Z,0.08
2023-03-01T00:23:51.340Z,0.08
2023-03-01T00:25:31.014Z,0.08
2023-03-01T00:27:10.831Z,0.08
2023-03-01T00:28:50.552Z,0.08
2023-03-01T00:30:30.277Z,0.07
2023-03-01T00:32:10.024Z,0.07
2023-03-01T00:33:49.951Z,0.07
2023-03-01T00:35:29.557Z,0.07
2023-03-01T00:37:09.304Z,0.07
2023-03-01T00:38:49.146Z,0.07
2023-03-01T00:40:28.901Z,0.07
2023-03-01T00:42:08.594Z,0.07
2023-03-01T00:43:48.482Z,0.07
2023-03-01T00:45:28.146Z,0.06
2023-03-01T00:47:08.089Z,0.06
2023-03-01T00:48:47.654Z,0.06
2023-03-01T00:50:27.481Z,0.06
2023-03-01T00:52:07.349Z,0.06
2023-03-01T00:53:47.074Z,0.06
2023-03-01T00:55:26.687Z,0.06
2023-03-01T00:57:06.601Z,0.06
2023-03-01T00:58:46.348Z,0.06
2023-03-01T01:00:26.127Z,0.06
2023-03-01T01:02:05.751Z,0.05
2023-03-01T01:03:45.562Z,0.05
2023-03-01T01:05:25.280Z,0.05
2023-03-01T01:07:05.107Z,0.05
2023-03-01T01:08:44.796Z,0.05
2023-03-01T01:10:24.666Z,0.05
2023-03-01T01:12:04.678Z,0.05
2023-03-01T01:13:44.215Z,0.05
2023-03-01T01:15:23.964Z,0.05
2023-03-01T01:17:03.659Z,0.05
2023-03-01T01:18:43.434Z,0.05
2023-03-01T01:20:23.268Z,0.05
2023-03-01T01:22:02.895Z,0.05
2023-03-01T01:23:42.797Z,0.05
2023-03-01T01:25:22.417Z,0.05
2023-03-01T01:27:02.304Z,0.05
2023-03-01T01:28:41.970Z,0.05
2023-03-01T01:30:21.738Z,0.05
2023-03-01T01:32:01.696Z,0.05
2023-03-01T01:33:41.255Z,0.05
2023-03-01T01:35:21.015Z,0.05
2023-03-01T01:37:00.851Z,0.05
2023-03-01T01:38:40.684Z,0.05
2023-03-01T01:40:20.316Z,0.04
2023-03-01T01:42:00.146Z,0.04
2023-03-01T01:43:39.857Z,0.04
2023-03-01T01:45:19.590Z,0.04
2023-03-01T01:46:59.365Z,0.04
2023-03-01T01:48:39.164Z,0.04
2023-03-01T01:50:18.880Z,0.04
2023-03-01T01:51:58.800Z,0.04
2023-03-01T01:53:38.448Z,0.04
2023-03-01T01:55:18.241Z,0.04
2023-03-01T01:56:58.108Z,0.04
2023-03-01T01:58:37.770Z,0.04
2023-03-01T02:00:17.466Z,0.04
2023-03-01T02:01:57.242Z,0.04
2023-03-01T02:03:37.304Z,0.03
2023-03-01T02:05:16.931Z,0.03
2023-03-01T02:06:56.666Z,0.03
2023-03-01T02:08:36.317Z,0.03
2023-03-01T02:10:16.057Z,0.03
2023-03-01T02:11:56.000Z,0.03
2023-03-01T02:13:35.617Z,0.03
2023-03-01T02:15:15.415Z,0.03
2023-03-01T02:16:55.192Z,0.03
2023-03-01T02:18:34.864Z,0.03
2023-03-01T02:20:14.832Z,0.03
2023-03-01T02:21:54.388Z,0.02
2023-03-01T02:23:34.166Z,0.02
2023-03-01T02:25:13.963Z,0.02
2023-03-01T02:26:53.717Z,0.02
2023-03-01T02:28:33.474Z,0.02
2023-03-01T02:30:13.231Z,0.02
2023-03-01T02:31:53.074Z,0.02
2023-03-01T02:33:32.880Z,0.02
2023-03-01T02:35:12.512Z,0.02
2023-03-01T02:36:52.437Z,0.02
2023-03-01T02:38:32.168Z,0.02
2023-03-01T02:40:11.896Z,0.02
2023-03-01T02:41:51.586Z,0.02
2023-03-01T02:43:31.400Z,0.02
2023-03-01T02:45:11.224Z,0.02
2023-03-01T02:46:50.855Z,0.02
2023-03-01T02:48:30.632Z,0.02
2023-03-01T02:50:10.378Z,0.02
2023-03-01T02:51:50.183Z,0.02
2023-03-01T02:53:29.951Z,0.02
2023-03-01T02:55:09.663Z,0.02
2023-03-01T02:56:49.578Z,0.02
2023-03-01T02:58:29.207Z,0.02
2023-03-01T03:00:09.041Z,0.02
2023-03-01T03:01:48.840Z,0.02
2023-03-01T03:03:28.541Z,0.02
2023-03-01T03:05:08.362Z,0.02
2023-03-01T03:06:48.082Z,0.02
2023-03-01T03:08:27.881Z,0.02
2023-03-01T03:10:07.561Z,0.02
2023-03-01T03:11:47.313Z,0.02
2023-03-01T03:13:27.235Z,0.02
2023-03-01T03:15:06.965Z,0.01
2023-03-01T03:16:46.708Z,0.01
2023-03-01T03:18:26.476Z,0.03
2023-03-01T03:20:06.165Z,0.02
2023-03-01T03:21:45.895Z,0.02
2023-03-01T03:23:25.850Z,0.02
2023-03-01T03:25:05.573Z,0.02
2023-03-01T03:26:45.337Z,0.02
2023-03-01T03:28:24.952Z,0.02
2023-03-01T03:30:04.804Z,0.02
2023-03-01T03:31:44.531Z,0.02
2023-03-01T03:33:24.255Z,0.02
2023-03-01T03:35:04.092Z,0.02
2023-03-01T03:36:43.979Z,0.02
2023-03-01T03:38:23.707Z,0.02
2023-03-01T03:40:03.422Z,0.02
2023-03-01T03:41:43.220Z,0.02
2023-03-01T03:43:22.976Z,0.02
2023-03-01T03:45:02.860Z,0.02
2023-03-01T03:46:42.379Z,0.02
2023-03-01T03:48:22.146Z,0.02
2023-03-01T03:50:01.988Z,0.02
2023-03-01T03:51:41.637Z,0.02
2023-03-01T03:53:21.430Z,0.02
2023-03-01T03:55:01.581Z,0.02
2023-03-01T03:56:41.084Z,0.02
2023-03-01T03:58:20.714Z,0.02
2023-03-01T04:00:00.662Z,0.03
2023-03-01T04:01:40.338Z,0.03
2023-03-01T04:03:20.090Z,0.03
2023-03-01T04:04:59.752Z,0.03
2023-03-01T04:06:39.588Z,0.03
2023-03-01T04:08:19.389Z,0.03
2023-03-01T04:09:59.097Z,0.03
2023-03-01T04:11:38.998Z,0.02
2023-03-01T04:13:18.652Z,0.03
2023-03-01T04:14:58.424Z,0.02
2023-03-01T04:16:38.222Z,0.02
2023-03-01T04:18:17.860Z,0.02
2023-03-01T04:19:57.792Z,0.02
2023-03-01T04:21:37.448Z,0.02
2023-03-01T04:23:17.245Z,0.02
2023-03-01T04:24:56.949Z,0.02
2023-03-01T04:26:36.701Z,0.03
2023-03-01T04:28:16.436Z,0.03
2023-03-01T04:29:56.327Z,0.03
2023-03-01T04:31:36.076Z,0.02
2023-03-01T04:33:15.890Z,0.03
2023-03-01T04:34:55.502Z,0.03
2023-03-01T04:36:35.272Z,0.03
2023-03-01T04:38:15.181Z,0.03
2023-03-01T04:39:54.793Z,0.03
2023-03-01T04:41:34.692Z,0.03
2023-03-01T04:43:14.313Z,0.04
2023-03-01T04:44:54.188Z,0.04
2023-03-01T04:46:33.860Z,0.04
2023-03-01T04:48:13.719Z,0.05
2023-03-01T04:49:53.372Z,0.06
2023-03-01T04:51:33.142Z,0.08
2023-03-01T04:53:13.027Z,0.08
2023-03-01T04:54:52.798Z,0.1
2023-03-01T04:56:32.434Z,0.14
2023-03-01T04:58:12.197Z,0.18
2023-03-01T04:59:51.959Z,0.22
2023-03-01T05:01:31.717Z,0.26
2023-03-01T05:03:11.525Z,0.34
2023-03-01T05:04:51.308Z,0.41
2023-03-01T05:06:31.076Z,0.52
2023-03-01T05:08:10.792Z,0.66
2023-03-01T05:09:50.536Z,0.84
2023-03-01T05:11:30.463Z,1.1
2023-03-01T05:13:10.065Z,1.38
2023-03-01T05:14:49.988Z,1.77
2023-03-01T05:16:29.606Z,2.3
2023-03-01T05:18:09.369Z,2.95
2023-03-01T05:19:49.143Z,3.79
2023-03-01T05:21:29.033Z,4.88
2023-03-01T05:23:08.869Z,6.19
2023-03-01T05:24:48.409Z,7.83
2023-03-01T05:26:28.288Z,9.78
2023-03-01T05:28:08.100Z,12
2023-03-01T05:29:47.981Z,12.51
2023-03-01T05:31:27.487Z,12.55
2023-03-01T05:33:07.261Z,12.57
2023-03-01T05:34:47.116Z,12.58
2023-03-01T05:36:26.886Z,12.59
2023-03-01T05:38:06.542Z,12.61
2023-03-01T05:39:46.440Z,12.62
2023-03-01T05:41:26.282Z,12.62
2023-03-01T05:43:05.887Z,12.64
2023-03-01T05:44:45.767Z,12.64
2023-03-01T05:46:25.336Z,12.66
2023-03-01T05:48:05.263Z,12.67
2023-03-01T05:49:44.931Z,12.68
2023-03-01T05:51:24.631Z,12.67
2023-03-01T05:53:04.452Z,12.69
2023-03-01T05:54:44.163Z,12.71
2023-03-01T05:56:24.014Z,12.72
2023-03-01T05:58:03.908Z,12.73
2023-03-01T05:59:43.644Z,12.75
2023-03-01T06:01:23.208Z,12.8
2023-03-01T06:03:03.160Z,18.62
2023-03-01T06:04:42.769Z,20.66
2023-03-01T06:06:22.525Z,15.1
2023-03-01T06:08:02.344Z,14.67
2023-03-01T06:09:42.100Z,14.6
2023-03-01T06:11:21.841Z,13.92
2023-03-01T06:13:01.568Z,13.92
2023-03-01T06:14:41.454Z,13.93
2023-03-01T06:16:21.144Z,13.96
2023-03-01T06:18:01.053Z,13.94
2023-03-01T06:19:40.773Z,13.99
2023-03-01T06:21:20.476Z,13.99
2023-03-01T06:23:00.143Z,14
2023-03-01T06:24:39.986Z,14.03
2023-03-01T06:26:19.732Z,14.03
2023-03-01T06:27:59.456Z,14.06
2023-03-01T06:29:39.283Z,14.03
2023-03-01T06:31:18.967Z,14.11
2023-03-01T06:32:58.818Z,14.18
2023-03-01T06:34:38.637Z,14.22
2023-03-01T06:36:18.396Z,14.25
2023-03-01T06:37:58.033Z,14.33
2023-03-01T06:39:37.887Z,14.37
2023-03-01T06:41:17.633Z,14.44
2023-03-01T06:42:57.440Z,14.49
2023-03-01T06:44:37.207Z,14.61
2023-03-01T06:46:16.913Z,14.66
2023-03-01T06:47:56.614Z,14.78
2023-03-01T06:49:36.431Z,14.88
2023-03-01T06:51:16.210Z,14.99
2023-03-01T06:52:56.113Z,15.07
2023-03-01T06:54:35.813Z,15.16
2023-03-01T06:56:15.613Z,15.27
2023-03-01T06:57:55.368Z,15.41
2023-03-01T06:59:34.954Z,15.54
2023-03-01T07:01:14.732Z,15.67
2023-03-01T07:02:54.502Z,15.81
2023-03-01T07:04:34.516Z,15.97
2023-03-01T07:06:14.143Z,16.11
2023-03-01T07:07:53.793Z,16.23
2023-03-01T07:09:33.715Z,47.74
2023-03-01T07:11:13.461Z,46.73
2023-03-01T07:12:53.231Z,46.78
2023-03-01T07:14:32.858Z,46.86
2023-03-01T07:16:12.778Z,46.92
2023-03-01T07:17:52.454Z,47
2023-03-01T07:19:32.238Z,47.04
2023-03-01T07:21:12.082Z,47.07
2023-03-01T07:22:51.681Z,47.13
2023-03-01T07:24:31.515Z,47.2
2023-03-01T07:26:11.283Z,47.21
2023-03-01T07:27:51.030Z,47.28
2023-03-01T07:29:30.818Z,47.36
2023-03-01T07:31:10.663Z,47.43
2023-03-01T07:32:50.285Z,47.51
2023-03-01T07:34:30.185Z,47.55
2023-03-01T07:36:09.953Z,47.64
2023-03-01T07:37:49.590Z,47.71
2023-03-01T07:39:29.471Z,47.79
2023-03-01T07:41:09.312Z,47.88
2023-03-01T07:42:49.072Z,48.03
2023-03-01T07:44:28.752Z,48.22
2023-03-01T07:46:08.429Z,48.49
2023-03-01T07:47:48.389Z,48.63
2023-03-01T07:49:27.936Z,48.66
2023-03-01T07:51:07.775Z,48.6
2023-03-01T07:52:47.469Z,48.62
2023-03-01T07:54:27.486Z,48.46
2023-03-01T07:56:07.134Z,48.25
2023-03-01T07:57:46.952Z,48.3
2023-03-01T07:59:26.673Z,48.42
2023-03-01T08:01:06.498Z,48.44
2023-03-01T08:02:46.159Z,48.42
2023-03-01T08:04:25.921Z,48.48
2023-03-01T08:06:05.764Z,48.39
2023-03-01T08:07:45.506Z,48.39
2023-03-01T08:09:25.271Z,48.42
2023-03-01T08:11:05.083Z,48.39
2023-03-01T08:12:44.820Z,48.46
2023-03-01T08:14:24.613Z,48.43
2023-03-01T08:16:04.178Z,48.33
2023-03-01T08:17:44.066Z,48.41
2023-03-01T08:19:23.725Z,48.39
2023-03-01T08:21:03.650Z,48.31
2023-03-01T08:22:43.371Z,48.4
2023-03-01T08:24:23.188Z,48.43
2023-03-01T08:26:02.866Z,48.33
2023-03-01T08:27:42.730Z,48.39
2023-03-01T08:29:22.474Z,48.29
2023-03-01T08:31:02.249Z,48.33
2023-03-01T08:32:41.953Z,48.18
2023-03-01T08:34:21.614Z,48.37
2023-03-01T08:36:01.492Z,48.36
2023-03-01T08:37:41.354Z,48.31
2023-03-01T08:39:20.911Z,48.19
2023-03-01T08:41:00.829Z,48.27
2023-03-01T08:42:40.516Z,48.22
2023-03-01T08:44:20.432Z,48.14
2023-03-01T08:46:00.012Z,48.08
2023-03-01T08:47:39.807Z,48.04
2023-03-01T08:49:19.520Z,48.06
2023-03-01T08:50:59.421Z,48.01
2023-03-01T08:52:39.061Z,47.98
2023-03-01T08:54:18.956Z,47.95
2023-03-01T08:55:58.739Z,47.92
2023-03-01T08:57:38.376Z,47.91
2023-03-01T08:59:18.292Z,47.88
2023-03-01T09:00:57.906Z,47.92
2023-03-01T09:02:37.658Z,47.91
2023-03-01T09:04:17.643Z,47.84
2023-03-01T09:05:57.346Z,47.8
2023-03-01T09:07:36.977Z,47.77
2023-03-01T09:09:16.808Z,47.86
2023-03-01T09:10:56.573Z,47.79
2023-03-01T09:12:36.283Z,47.73
2023-03-01T09:14:16.001Z,47.65
2023-03-01T09:15:55.944Z,47.64
2023-03-01T09:17:35.604Z,47.61
2023-03-01T09:19:15.330Z,47.59
2023-03-01T09:20:55.217Z,47.54
2023-03-01T09:22:34.818Z,47.47
2023-03-01T09:24:14.676Z,47.46
2023-03-01T09:25:54.541Z,47.38
2023-03-01T09:27:34.278Z,47.34
2023-03-01T09:29:14.058Z,47.3
2023-03-01T09:30:53.764Z,47.3
2023-03-01T09:32:33.563Z,47.31
2023-03-01T09:34:13.337Z,47.28
2023-03-01T09:35:53.094Z,47.3
2023-03-01T09:37:32.877Z,47.33
2023-03-01T09:39:12.654Z,47.33
2023-03-01T09:40:52.403Z,47.36
2023-03-01T09:42:32.019Z,47.39
2023-03-01T09:44:11.806Z,47.44
2023-03-01T09:45:51.650Z,47.44
2023-03-01T09:47:31.374Z,47.45
2023-03-01T09:49:11.050Z,47.44
2023-03-01T09:50:50.824Z,47.46
2023-03-01T09:52:30.728Z,47.41
2023-03-01T09:54:10.339Z,47.39
2023-03-01T09:55:50.194Z,47.4
2023-03-01T09:57:30.011Z,47.43
2023-03-01T09:59:09.802Z,47.45
2023-03-01T10:00:49.475Z,47.43
2023-03-01T10:02:29.336Z,47.42
2023-03-01T10:04:09.005Z,47.45
2023-03-01T10:05:48.750Z,47.41
2023-03-01T10:07:28.587Z,47.36
2023-03-01T10:09:08.392Z,47.35
2023-03-01T10:10:48.156Z,47.28
2023-03-01T10:12:27.870Z,47.23
2023-03-01T10:14:07.688Z,47.18
2023-03-01T10:15:47.568Z,47.17
2023-03-01T10:17:27.149Z,47.09
2023-03-01T10:19:06.946Z,47.03
2023-03-01T10:20:46.557Z,47
2023-03-01T10:22:26.461Z,46.98
2023-03-01T10:24:06.323Z,47.01
2023-03-01T10:25:45.958Z,46.98
2023-03-01T10:27:25.749Z,46.94
2023-03-01T10:29:05.581Z,46.91
2023-03-01T10:30:45.176Z,46.89
2023-03-01T10:32:25.155Z,46.88
2023-03-01T10:34:04.776Z,46.88
2023-03-01T10:35:44.555Z,46.83
2023-03-01T10:37:24.426Z,46.93
2023-03-01T10:39:04.169Z,46.98
2023-03-01T10:40:43.917Z,46.94
2023-03-01T10:42:23.664Z,46.85
2023-03-01T10:44:03.377Z,46.77
2023-03-01T10:45:43.203Z,46.79
2023-03-01T10:47:22.986Z,46.71
2023-03-01T10:49:02.692Z,46.71
2023-03-01T10:50:42.329Z,46.71
2023-03-01T10:52:22.103Z,46.8
2023-03-01T10:54:01.890Z,46.9
2023-03-01T10:55:41.723Z,46.88
2023-03-01T10:57:21.500Z,47.01
2023-03-01T10:59:01.150Z,47.13
2023-03-01T11:00:41.075Z,47.07
2023-03-01T11:02:20.752Z,47.1
2023-03-01T11:04:00.426Z,47.2
2023-03-01T11:05:40.191Z,47.24
2023-03-01T11:07:19.970Z,47.14
2023-03-01T11:08:59.760Z,47.14
2023-03-01T11:10:39.495Z,47.16
2023-03-01T11:12:19.421Z,47.08
2023-03-01T11:13:59.014Z,47.01
2023-03-01T11:15:38.939Z,46.96
2023-03-01T11:17:18.710Z,46.93
2023-03-01T11:18:58.467Z,46.84
2023-03-01T11:20:38.268Z,46.8
2023-03-01T11:22:18.021Z,46.7
2023-03-01T11:23:57.937Z,46.94
2023-03-01T11:25:37.560Z,46.8
2023-03-01T11:27:17.295Z,46.87
2023-03-01T11:28:57.025Z,46.83
2023-03-01T11:30:36.636Z,46.88
2023-03-01T11:32:16.401Z,46.93
2023-03-01T11:33:56.512Z,47.05
2023-03-01T11:35:35.936Z,47.01
2023-03-01T11:37:15.900Z,46.93
2023-03-01T11:38:55.603Z,46.81
2023-03-01T11:40:35.397Z,46.83
2023-03-01T11:42:14.985Z,46.92
2023-03-01T11:43:54.957Z,46.83
2023-03-01T11:45:34.694Z,47.01
2023-03-01T11:47:14.471Z,46.96
2023-03-01T11:48:54.176Z,46.83
2023-03-01T11:50:34.022Z,46.73
2023-03-01T11:52:13.749Z,46.78
2023-03-01T11:53:53.541Z,46.75
2023-03-01T11:55:33.336Z,46.81
2023-03-01T11:57:13.056Z,46.87
2023-03-01T11:58:52.803Z,47
2023-03-01T12:00:32.602Z,47.13
2023-03-01T12:02:12.294Z,47.05
2023-03-01T12:03:52.007Z,47.19
2023-03-01T12:05:31.854Z,47.16
2023-03-01T12:07:11.605Z,47.3
2023-03-01T12:08:51.356Z,47.35
2023-03-01T12:10:30.958Z,47.28
2023-03-01T12:12:10.997Z,47.15
2023-03-01T12:15:30.477Z,47.12
2023-03-01T12:17:10.200Z,47.1
2023-03-01T12:18:49.858Z,47.06
2023-03-01T12:20:29.782Z,46.99
2023-03-01T12:22:09.500Z,46.88
2023-03-01T12:23:49.275Z,47.09
2023-03-01T12:25:29.064Z,47.15
2023-03-01T12:27:08.692Z,47.16
2023-03-01T12:28:48.510Z,46.92
2023-03-01T12:30:28.249Z,46.96
2023-03-01T12:32:08.039Z,46.82
2023-03-01T12:33:47.818Z,46.85
2023-03-01T12:35:27.565Z,47
2023-03-01T12:37:07.200Z,47.06
2023-03-01T12:38:46.978Z,47.1
2023-03-01T12:40:26.720Z,47.2
2023-03-01T12:42:06.534Z,47.19
2023-03-01T12:43:46.428Z,47.03
2023-03-01T12:45:26.183Z,46.95
2023-03-01T12:47:05.940Z,46.85
2023-03-01T12:48:45.683Z,46.77
2023-03-01T12:50:25.418Z,46.74
2023-03-01T12:52:05.060Z,46.44
2023-03-01T12:53:45.024Z,46.29
2023-03-01T12:55:24.701Z,45.81
2023-03-01T12:57:04.465Z,45.93
2023-03-01T12:58:44.139Z,46.6
2023-03-01T13:00:24.030Z,46.4
2023-03-01T13:02:03.671Z,46.94
2023-03-01T13:03:43.455Z,47.64
2023-03-01T13:05:23.306Z,47.38
2023-03-01T13:07:03.111Z,46.93
2023-03-01T13:08:42.823Z,46.43
2023-03-01T13:10:22.595Z,45.73
2023-03-01T13:12:02.366Z,46.43
2023-03-01T13:13:42.093Z,45.95
2023-03-01T13:15:21.853Z,46.79
2023-03-01T13:17:01.530Z,46.53
2023-03-01T13:18:41.307Z,47.03
2023-03-01T13:20:21.066Z,46.95
2023-03-01T13:22:00.822Z,47.21
2023-03-01T13:23:40.605Z,47.9
2023-03-01T13:25:20.487Z,47.76
2023-03-01T13:27:00.129Z,46.95
2023-03-01T13:28:40.050Z,47.49
2023-03-01T13:30:19.683Z,47.33
2023-03-01T13:31:59.403Z,46.92
2023-03-01T13:33:39.173Z,47.09
2023-03-01T13:35:18.945Z,47.3
2023-03-01T13:36:58.704Z,47.42
2023-03-01T13:38:38.621Z,47.17
2023-03-01T13:40:18.354Z,47.1
2023-03-01T13:41:58.138Z,47.09
2023-03-01T13:43:37.818Z,47.1
2023-03-01T13:45:17.741Z,47.22
2023-03-01T13:46:57.349Z,47.39
2023-03-01T13:48:37.124Z,47.3
2023-03-01T13:50:16.925Z,47.32
2023-03-01T13:51:56.672Z,47.17
2023-03-01T13:53:36.409Z,46.8
2023-03-01T13:55:16.130Z,46.62
2023-03-01T13:56:56.056Z,46.02
2023-03-01T13:58:35.860Z,46.48
2023-03-01T14:00:15.400Z,46.64
2023-03-01T14:01:55.176Z,46.98
2023-03-01T14:03:35.136Z,47.24
2023-03-01T14:05:14.820Z,47.31
2023-03-01T14:06:54.477Z,47.16
2023-03-01T14:08:34.226Z,47.1
2023-03-01T14:10:14.095Z,47.07
2023-03-01T14:11:53.796Z,47.1
2023-03-01T14:13:34.118Z,47.06
2023-03-01T14:15:13.274Z,46.97
2023-03-01T14:16:53.103Z,46.99
2023-03-01T14:18:32.940Z,47
2023-03-01T14:20:12.599Z,47.26
2023-03-01T14:21:52.349Z,47.16
2023-03-01T14:23:32.193Z,47.29
2023-03-01T14:25:12.032Z,47.24
2023-03-01T14:26:51.680Z,47.16
2023-03-01T14:28:31.458Z,47.18
2023-03-01T14:30:11.175Z,47.15
2023-03-01T14:31:50.935Z,47.1
2023-03-01T14:33:30.867Z,47.04
2023-03-01T14:35:10.643Z,47.07
2023-03-01T14:36:50.196Z,47.01
2023-03-01T14:38:30.066Z,46.93
2023-03-01T14:40:09.757Z,46.96
2023-03-01T14:41:49.508Z,46.93
2023-03-01T14:43:29.298Z,46.96
2023-03-01T14:45:09.132Z,46.97
2023-03-01T14:46:48.855Z,46.86
2023-03-01T14:48:28.748Z,46.68
2023-03-01T14:50:08.442Z,46.63
2023-03-01T14:51:48.296Z,46.6
2023-03-01T14:53:28.047Z,46.63
2023-03-01T14:55:07.624Z,46.67
2023-03-01T14:56:47.476Z,46.7
2023-03-01T14:58:27.281Z,46.65
2023-03-01T15:00:06.914Z,46.61
2023-03-01T15:01:46.740Z,46.6
2023-03-01T15:03:26.480Z,46.52
2023-03-01T15:05:06.225Z,46.42
2023-03-01T15:06:45.974Z,46.39
2023-03-01T15:08:25.832Z,46.31
2023-03-01T15:10:05.486Z,46.25
2023-03-01T15:11:45.413Z,46.22
2023-03-01T15:13:25.142Z,46.15
2023-03-01T15:15:04.938Z,46.07
2023-03-01T15:16:44.678Z,45.98
2023-03-01T15:18:24.305Z,45.88
2023-03-01T15:20:04.065Z,45.78
2023-03-01T15:21:43.863Z,45.71
2023-03-01T15:23:23.763Z,45.61
2023-03-01T15:25:03.473Z,45.5
2023-03-01T15:26:43.293Z,45.48
2023-03-01T15:28:22.889Z,45.53
2023-03-01T15:30:02.774Z,45.47
2023-03-01T15:31:42.495Z,45.27
2023-03-01T15:33:22.168Z,45.34
2023-03-01T15:35:02.076Z,45.17
2023-03-01T15:36:41.913Z,45.12
2023-03-01T15:38:21.613Z,45.13
2023-03-01T15:40:01.437Z,45.11
2023-03-01T15:41:41.208Z,45.24
2023-03-01T15:43:20.869Z,45.1
2023-03-01T15:45:00.673Z,45
2023-03-01T15:46:40.423Z,44.75
2023-03-01T15:48:20.175Z,44.66
2023-03-01T15:49:59.815Z,44.59
2023-03-01T15:51:39.702Z,44.35
2023-03-01T15:53:19.421Z,44.06
2023-03-01T15:54:59.278Z,43.83
2023-03-01T15:56:39.042Z,43.55
2023-03-01T15:58:18.788Z,43.25
2023-03-01T15:59:58.448Z,43.02
2023-03-01T16:01:38.353Z,42.69
2023-03-01T16:03:18.113Z,42.52
2023-03-01T16:04:57.803Z,42.17
2023-03-01T16:06:37.503Z,41.81
2023-03-01T16:08:17.398Z,41.5
2023-03-01T16:09:57.016Z,41.24
2023-03-01T16:11:36.847Z,40.91
2023-03-01T16:13:16.633Z,40.32
2023-03-01T16:14:56.275Z,39.75
2023-03-01T16:16:36.038Z,38.56
2023-03-01T16:18:15.916Z,29.74
2023-03-01T16:19:55.772Z,15.86
2023-03-01T16:21:35.387Z,15.64
2023-03-01T16:23:15.231Z,14.54
2023-03-01T16:24:55.029Z,14.51
2023-03-01T16:26:34.610Z,14.48
2023-03-01T16:28:14.377Z,14.44
2023-03-01T16:29:54.202Z,14.42
2023-03-01T16:31:34.017Z,14.37
2023-03-01T16:33:13.732Z,15.14
2023-03-01T16:34:53.570Z,14.47
2023-03-01T16:36:33.292Z,21.66
2023-03-01T16:38:12.969Z,13.64
2023-03-01T16:39:52.846Z,12.87
2023-03-01T16:41:32.485Z,13.27
2023-03-01T16:43:12.465Z,13.22
2023-03-01T16:44:52.170Z,13.2
2023-03-01T16:46:31.799Z,13.19
2023-03-01T16:48:11.764Z,13.18
2023-03-01T16:49:51.400Z,13.16
2023-03-01T16:51:31.322Z,13.13
2023-03-01T16:53:10.836Z,13.11
2023-03-01T16:54:50.785Z,13.12
2023-03-01T16:56:30.372Z,13.1
2023-03-01T16:58:10.284Z,13.08
2023-03-01T16:59:49.890Z,13.08
2023-03-01T17:01:29.666Z,13.05
2023-03-01T17:03:09.576Z,13.06
2023-03-01T17:04:49.362Z,13.02
2023-03-01T17:06:29.128Z,13.02
2023-03-01T17:08:08.853Z,12.99
2023-03-01T17:09:48.492Z,12.98
2023-03-01T17:11:28.249Z,12.96
2023-03-01T17:13:08.117Z,12.93
2023-03-01T17:14:47.907Z,12.82
2023-03-01T17:16:27.529Z,10.42
2023-03-01T17:18:07.394Z,8.22
2023-03-01T17:19:47.067Z,6.4
2023-03-01T17:21:27.001Z,4.92
2023-03-01T17:23:06.642Z,3.82
2023-03-01T17:24:46.358Z,2.94
2023-03-01T17:26:26.297Z,2.31
2023-03-01T17:28:05.962Z,1.79
2023-03-01T17:29:45.668Z,1.42
2023-03-01T17:31:25.551Z,1.12
2023-03-01T17:33:05.176Z,0.9
2023-03-01T17:34:44.962Z,0.75
2023-03-01T17:36:24.855Z,0.61
2023-03-01T17:38:04.528Z,0.52
2023-03-01T17:39:44.409Z,0.45
2023-03-01T17:41:24.133Z,0.41
2023-03-01T17:43:03.950Z,0.35
2023-03-01T17:44:43.645Z,0.32
2023-03-01T17:46:23.365Z,0.3
2023-03-01T17:48:03.049Z,0.27
2023-03-01T17:49:43.028Z,0.25
2023-03-01T17:51:22.721Z,0.25
2023-03-01T17:53:02.342Z,0.24
2023-03-01T17:54:42.322Z,0.22
2023-03-01T17:56:21.908Z,0.22
2023-03-01T17:58:01.825Z,0.22
2023-03-01T17:59:41.553Z,0.22
2023-03-01T18:01:21.290Z,0.2
2023-03-01T18:03:00.938Z,0.2
2023-03-01T18:04:40.899Z,0.19
2023-03-01T18:06:20.597Z,0.21
2023-03-01T18:08:00.227Z,0.21
2023-03-01T18:09:40.013Z,0.21
2023-03-01T18:11:19.836Z,0.21
2023-03-01T18:12:59.673Z,0.2
2023-03-01T18:14:39.281Z,0.19
2023-03-01T18:16:19.029Z,0.21
2023-03-01T18:17:58.806Z,0.21
2023-03-01T18:19:38.685Z,0.21
2023-03-01T18:21:18.417Z,0.21
2023-03-01T18:22:58.103Z,0.21
2023-03-01T18:24:38.040Z,0.2
2023-03-01T18:26:17.847Z,0.2
2023-03-01T18:27:57.575Z,0.2
2023-03-01T18:29:37.221Z,0.2
2023-03-01T18:31:16.922Z,0.2
2023-03-01T18:32:56.834Z,0.2
2023-03-01T18:34:36.565Z,0.2
2023-03-01T18:36:16.386Z,0.19
2023-03-01T18:37:56.031Z,0.2
2023-03-01T18:39:35.885Z,0.2
2023-03-01T18:41:15.677Z,0.2
2023-03-01T18:42:55.440Z,0.2
2023-03-01T18:44:35.033Z,0.2
2023-03-01T18:46:14.904Z,0.21
2023-03-01T18:47:54.744Z,0.2
2023-03-01T18:49:34.474Z,0.21
2023-03-01T18:51:14.089Z,0.2
2023-03-01T18:52:53.854Z,0.21
2023-03-01T18:54:33.762Z,0.2
2023-03-01T18:56:13.389Z,0.21
2023-03-01T18:57:53.138Z,0.21
2023-03-01T18:59:33.045Z,0.21
2023-03-01T19:01:12.847Z,0.21
2023-03-01T19:02:52.516Z,0.22
2023-03-01T19:04:32.350Z,0.21
2023-03-01T19:06:12.123Z,0.19
2023-03-01T19:07:51.875Z,0.21
2023-03-01T19:09:31.622Z,0.21
2023-03-01T19:11:11.434Z,0.21
2023-03-01T19:12:51.106Z,0.21
2023-03-01T19:14:30.803Z,0.2
2023-03-01T19:16:10.707Z,0.21
2023-03-01T19:17:50.396Z,0.21
2023-03-01T19:19:30.218Z,0.2
2023-03-01T19:21:09.975Z,0.22
2023-03-01T19:22:49.729Z,0.22
2023-03-01T19:24:29.371Z,0.2
2023-03-01T19:26:09.261Z,0.21
2023-03-01T19:27:48.956Z,0.21
2023-03-01T19:29:28.719Z,0.21
2023-03-01T19:31:08.504Z,0.22
2023-03-01T19:32:48.333Z,0.22
2023-03-01T19:34:27.912Z,0.21
2023-03-01T19:36:07.798Z,0.21
2023-03-01T19:37:47.646Z,0.21
2023-03-01T19:39:27.273Z,0.21
2023-03-01T19:41:07.126Z,0.21
2023-03-01T19:42:46.916Z,0.21
2023-03-01T19:44:26.689Z,0.22
2023-03-01T19:46:06.384Z,0.22
2023-03-01T19:47:46.266Z,0.22
2023-03-01T19:49:25.822Z,0.22
2023-03-01T19:51:05.684Z,0.22
2023-03-01T19:52:45.467Z,0.22
2023-03-01T19:54:25.216Z,0.22
2023-03-01T19:56:05.019Z,0.22
2023-03-01T19:57:44.762Z,0.22
2023-03-01T19:59:24.517Z,0.22
2023-03-01T20:01:04.362Z,0.22
2023-03-01T20:02:44.058Z,0.22
2023-03-01T20:04:23.908Z,0.22
2023-03-01T20:06:03.522Z,0.22
2023-03-01T20:07:43.339Z,0.21
2023-03-01T20:09:23.152Z,0.22
2023-03-01T20:11:02.915Z,0.22
2023-03-01T20:12:42.640Z,0.22
2023-03-01T20:14:22.385Z,0.22
2023-03-01T20:16:02.187Z,0.22
2023-03-01T20:17:41.948Z,0.22
2023-03-01T20:19:21.672Z,0.22
2023-03-01T20:21:01.422Z,0.22
2023-03-01T20:22:41.189Z,0.22
2023-03-01T20:24:21.024Z,0.22
2023-03-01T20:26:00.716Z,0.22
2023-03-01T20:27:40.528Z,0.22
2023-03-01T20:29:20.134Z,0.22
2023-03-01T20:30:59.935Z,0.21
2023-03-01T20:32:39.839Z,0.21
2023-03-01T20:34:19.541Z,0.21
2023-03-01T20:35:59.353Z,0.21
2023-03-01T20:37:39.137Z,0.2
2023-03-01T20:39:18.903Z,0.22
2023-03-01T20:40:58.475Z,0.22
2023-03-01T20:42:38.433Z,0.2
2023-03-01T20:44:18.010Z,0.22
2023-03-01T20:45:57.875Z,0.22
2023-03-01T20:47:37.544Z,0.21
2023-03-01T20:49:17.474Z,0.21
2023-03-01T20:50:57.213Z,0.21
2023-03-01T20:52:36.919Z,0.21
2023-03-01T20:54:16.695Z,0.21
2023-03-01T20:55:56.375Z,0.2
2023-03-01T20:57:36.116Z,0.21
2023-03-01T20:59:15.895Z,0.21
2023-03-01T21:00:55.820Z,0.21
2023-03-01T21:02:35.572Z,0.21
2023-03-01T21:04:15.274Z,0.21
2023-03-01T21:05:55.091Z,0.21
2023-03-01T21:07:34.848Z,0.21
2023-03-01T21:09:14.485Z,0.21
2023-03-01T21:10:54.321Z,0.21
2023-03-01T21:12:34.162Z,0.21
2023-03-01T21:14:13.760Z,0.21
2023-03-01T21:15:53.670Z,0.21
2023-03-01T21:17:33.446Z,0.21
2023-03-01T21:19:13.219Z,0.21
2023-03-01T21:20:52.976Z,0.21
2023-03-01T21:22:32.737Z,0.21
2023-03-01T21:24:12.500Z,0.2
2023-03-01T21:25:52.321Z,0.2
2023-03-01T21:27:32.054Z,0.21
2023-03-01T21:29:11.806Z,0.2
2023-03-01T21:30:51.549Z,0.2
2023-03-01T21:32:31.317Z,0.2
2023-03-01T21:34:10.967Z,0.2
2023-03-01T21:35:50.709Z,0.2
2023-03-01T21:37:30.669Z,0.2
2023-03-01T21:39:10.501Z,0.2
2023-03-01T21:40:50.103Z,0.2
2023-03-01T21:42:29.737Z,0.2
2023-03-01T21:44:09.677Z,0.2
2023-03-01T21:45:49.409Z,0.2
2023-03-01T21:47:29.243Z,0.2
2023-03-01T21:49:09.093Z,0.2
2023-03-01T21:50:48.719Z,0.2
2023-03-01T21:52:28.527Z,0.19